Time;durP1;ratioP1;P1;durP2;ratioP2;P2;SDS_P1;SDS_P2;PMS_P1;PMS_P2;Temp;Humidity;BMP_temperature;BMP_pressure;BME280_temperature;BME280_humidity;BME280_pressure;Samples;Min_cycle;Max_cycle;Signal;HPM_P1;HPM_P2
2022/12/06 00:01:35;;;;;;;;;;;;;;;;;;4435486;32;20125;-73
2022/12/06 00:04:02;;;;;;;24.48;10.28;;;;;;;;;;4435003;32;20269;-72
2022/12/06 00:06:28;;;;;;;25.70;10.52;;;;;;;;;;4435053;32;20074;-74
2022/12/06 00:08:54;;;;;;;20.85;8.93;;;;;;;;;;4439148;32;20038;-73
2022/12/06 00:11:19;;;;;;;;;;;;;;;;;;4439098;32;20074;-73
2022/12/06 00:13:45;;;;;;;21.65;10.73;;;;;;;;;;4436240;32;20273;-75
2022/12/06 00:16:10;;;;;;;;;;;;;;;;;;4435360;32;20033;-73
2022/12/06 00:18:36;;;;;;;20.98;9.93;;;;;;;;;;4421191;32;19955;-74
2022/12/06 00:21:06;;;;;;;23.75;10.07;;;;;;;;;;4423674;32;20155;-74
2022/12/06 00:23:33;;;;;;;24.27;9.85;;;;;;;;;;4435664;32;20049;-74
2022/12/06 00:25:59;;;;;;;23.48;9.10;;;;;;;;;;4421710;32;20056;-73
2022/12/06 00:28:24;;;;;;;20.48;9.00;;;;;;;;;;4437996;32;20080;-73
2022/12/06 00:30:49;;;;;;;;;;;;;;;;;;4436987;32;20068;-73
2022/12/06 00:33:14;;;;;;;22.95;10.13;;;;;;;;;;4436506;32;19970;-75
2022/12/06 00:35:40;;;;;;;;;;;;;;;;;;4422594;32;20084;-74
2022/12/06 00:38:05;;;;;;;17.05;8.07;;;;;;;;;;4437487;32;20052;-74
2022/12/06 00:40:30;;;;;;;;;;;;;;;;;;4436134;32;20129;-74
2022/12/06 00:42:55;;;;;;;16.05;7.70;;;;;;;;;;4436128;32;19933;-74
2022/12/06 00:45:20;;;;;;;;;;;;;;;;;;4436883;32;20534;-73
2022/12/06 00:47:45;;;;;;;18.90;8.07;;;;;;;;;;4436024;32;20286;-73
2022/12/06 00:50:10;;;;;;;;;;;;;;;;;;4436246;32;20156;-74
2022/12/06 00:52:35;;;;;;;17.00;7.90;;;;;;;;;;4435872;32;19940;-73
2022/12/06 00:55:01;;;;;;;;;;;;;;;;;;4437056;32;20137;-73
2022/12/06 00:57:26;;;;;;;18.08;8.32;;;;;;;;;;4435858;32;19933;-73
2022/12/06 00:59:51;;;;;;;;;;;;;;;;;;4436321;32;20180;-73
2022/12/06 01:02:16;;;;;;;19.87;7.28;;;;;;;;;;4435785;32;20064;-74
2022/12/06 01:04:41;;;;;;;;;;;;;;;;;;4435942;32;20199;-73
2022/12/06 01:07:07;;;;;;;16.45;7.20;;;;;;;;;;4436000;32;19933;-74
2022/12/06 01:09:32;;;;;;;;;;;;;;;;;;4435556;32;20424;-72
2022/12/06 01:11:57;;;;;;;13.95;6.93;;;;;;;;;;4435628;32;19932;-72
2022/12/06 01:14:22;;;;;;;;;;;;;;;;;;4437591;32;20156;-73
2022/12/06 01:16:47;;;;;;;14.85;7.20;;;;;;;;;;4434852;32;20267;-73
2022/12/06 01:19:12;;;;;;;;;;;;;;;;;;4434886;32;20133;-73
2022/12/06 01:21:38;;;;;;;22.13;7.18;;;;;;;;;;4435010;32;20262;-73
2022/12/06 01:24:03;;;;;;;;;;;;;;;;;;4434577;32;20153;-74
2022/12/06 01:26:29;;;;;;;12.43;6.65;;;;;;;;;;4419881;32;20071;-73
2022/12/06 01:28:56;;;;;;;16.73;8.93;;;;;;;;;;4435848;32;20085;-75
2022/12/06 01:31:21;;;;;;;15.43;7.37;;;;;;;;;;4437072;32;20030;-73
2022/12/06 01:33:46;;;;;;;;;;;;;;;;;;4424382;32;20029;-73
2022/12/06 01:36:15;;;;;;;15.98;6.95;;;;;;;;;;4426993;32;19932;-73
2022/12/06 01:38:40;;;;;;;18.55;7.28;;;;;;;;;;4420874;32;20074;-73
2022/12/06 01:41:05;;;;;;;;;;;;;;;;;;4435781;32;20045;-73
2022/12/06 01:43:33;;;;;;;11.27;6.93;;;;;;;;;;4434248;32;19936;-73
2022/12/06 01:46:00;;;;;;;15.98;6.95;;;;;;;;;;4420977;32;20026;-72
2022/12/06 01:48:25;;;;;;;16.08;6.62;;;;;;;;;;4435648;32;20037;-73
2022/12/06 01:50:51;;;;;;;;;;;;;;;;;;4434921;32;20113;-73
2022/12/06 01:53:18;;;;;;;13.90;5.47;;;;;;;;;;4434216;32;19974;-74
2022/12/06 01:55:43;;;;;;;18.30;6.57;;;;;;;;;;4435458;32;20088;-73
2022/12/06 01:58:08;;;;;;;;;;;;;;;;;;4436029;32;20030;-73
2022/12/06 02:00:33;;;;;;;14.07;6.82;;;;;;;;;;4421206;32;19946;-74
2022/12/06 02:02:59;;;;;;;24.42;6.95;;;;;;;;;;4421170;32;20474;-73
2022/12/06 02:05:24;;;;;;;;;;;;;;;;;;4436546;32;20091;-73
2022/12/06 02:07:49;;;;;;;12.73;5.50;;;;;;;;;;4435700;32;19941;-73
2022/12/06 02:10:15;;;;;;;14.52;6.22;;;;;;;;;;4420669;32;20060;-74
2022/12/06 02:12:40;;;;;;;;;;;;;;;;;;4434964;32;20083;-73
2022/12/06 02:15:05;;;;;;;12.00;5.22;;;;;;;;;;4434883;32;19933;-73
2022/12/06 02:17:30;;;;;;;;;;;;;;;;;;4434719;32;20048;-73
2022/12/06 02:20:02;;;;;;;14.63;5.32;;;;;;;;;;4434769;32;19937;-73
2022/12/06 02:22:27;;;;;;;11.43;4.72;;;;;;;;;;4435111;32;20128;-73
2022/12/06 02:25:09;;;;;;;9.82;4.70;;;;;;;;;;4419612;32;20118;-73
2022/12/06 02:27:53;;;;;;;17.08;6.75;;;;;;;;;;4434607;32;20026;-74
2022/12/06 02:30:27;;;;;;;13.88;5.47;;;;;;;;;;4419500;32;20067;-74
2022/12/06 02:32:57;;;;;;;10.82;4.53;;;;;;;;;;4432801;32;20486;-74
2022/12/06 02:35:27;;;;;;;12.27;4.68;;;;;;;;;;4435231;32;20383;-74
2022/12/06 02:37:55;;;;;;;9.48;5.18;;;;;;;;;;4435200;32;20363;-74
2022/12/06 02:40:28;;;;;;;12.00;5.15;;;;;;;;;;4434184;32;20077;-75
2022/12/06 02:42:56;;;;;;;15.32;4.45;;;;;;;;;;4433907;32;20037;-74
2022/12/06 02:45:25;;;;;;;13.35;5.15;;;;;;;;;;4433973;32;20418;-74
2022/12/06 02:47:51;;;;;;;15.68;5.30;;;;;;;;;;4435067;32;20021;-74
2022/12/06 02:50:16;;;;;;;;;;;;;;;;;;4433940;32;20059;-74
2022/12/06 02:52:43;;;;;;;13.60;6.35;;;;;;;;;;4433322;32;19966;-74
2022/12/06 02:55:09;;;;;;;14.30;5.72;;;;;;;;;;4432484;32;20030;-74
2022/12/06 02:57:39;;;;;;;10.15;5.28;;;;;;;;;;4433678;32;20038;-74
2022/12/06 03:00:23;;;;;;;12.65;5.25;;;;;;;;;;4436429;32;20030;-74
2022/12/06 03:02:48;;;;;;;13.65;5.00;;;;;;;;;;4433803;32;20033;-74
2022/12/06 03:05:14;;;;;;;;;;;;;;;;;;4434264;32;20422;-74
2022/12/06 03:07:41;;;;;;;9.90;4.20;;;;;;;;;;4433027;32;19945;-73
2022/12/06 03:10:13;;;;;;;12.93;4.95;;;;;;;;;;4419154;32;20033;-73
2022/12/06 03:12:44;;;;;;;14.38;4.40;;;;;;;;;;4433046;32;20095;-72
2022/12/06 03:15:14;;;;;;;14.10;4.80;;;;;;;;;;4433008;32;20121;-74
2022/12/06 03:17:48;;;;;;;8.55;4.90;;;;;;;;;;4421068;32;20034;-74
2022/12/06 03:20:22;;;;;;;13.80;4.90;;;;;;;;;;4433341;32;20379;-74
2022/12/06 03:22:51;;;;;;;11.60;4.40;;;;;;;;;;4434933;32;20026;-73
2022/12/06 03:25:16;;;;;;;12.57;5.25;;;;;;;;;;4421132;32;20069;-74
2022/12/06 03:27:42;;;;;;;;;;;;;;;;;;4434446;32;20065;-74
2022/12/06 03:30:10;;;;;;;16.80;4.87;;;;;;;;;;4420754;32;19944;-74
2022/12/06 03:32:36;;;;;;;13.98;4.82;;;;;;;;;;4419963;32;20113;-73
2022/12/06 03:35:01;;;;;;;;;;;;;;;;;;4433540;32;20090;-74
2022/12/06 03:37:28;;;;;;;13.70;4.85;;;;;;;;;;4433491;32;19936;-74
2022/12/06 03:40:06;;;;;;;10.65;4.15;;;;;;;;;;4433611;32;20125;-74
2022/12/06 03:42:31;;;;;;;10.18;5.18;;;;;;;;;;4419537;32;20112;-74
2022/12/06 03:44:56;;;;;;;;;;;;;;;;;;4433500;32;20025;-74
2022/12/06 03:47:35;;;;;;;10.98;5.28;;;;;;;;;;4433141;32;19933;-74
2022/12/06 03:50:03;;;;;;;14.50;5.05;;;;;;;;;;4434032;32;20056;-74
2022/12/06 03:52:28;;;;;;;15.20;4.87;;;;;;;;;;4420256;32;20034;-73
2022/12/06 03:54:53;;;;;;;;;;;;;;;;;;4437123;32;20052;-73
2022/12/06 03:57:19;;;;;;;8.20;3.85;;;;;;;;;;4436641;32;19952;-73
2022/12/06 03:59:45;;;;;;;11.85;5.03;;;;;;;;;;4435937;32;20029;-73
2022/12/06 04:02:10;;;;;;;;;;;;;;;;;;4435881;32;20176;-74
2022/12/06 04:04:35;;;;;;;9.25;4.30;;;;;;;;;;4436628;32;20294;-74
2022/12/06 04:07:00;;;;;;;;;;;;;;;;;;4422561;32;20169;-74
2022/12/06 04:14:53;;;;;;;9.55;4.37;;;;;;;;;;4437543;32;20072;-74
2022/12/06 04:20:02;;;;;;;9.68;4.32;;;;;;;;;;4440668;32;20352;-74
2022/12/06 04:25:11;;;;;;;9.20;5.12;;;;;;;;;;4437373;32;20009;-73
2022/12/06 04:38:39;;;;;;;9.40;5.00;;;;;;;;;;4437074;32;20106;-73
2022/12/06 04:41:05;;;;;;;7.95;4.05;;;;;;;;;;4437268;32;20074;-74
2022/12/06 04:43:42;;;;;;;;;;;;;;;;;;4423485;32;20026;-73
2022/12/06 04:46:08;;;;;;;8.00;4.20;;;;;;;;;;4421708;32;19943;-73
2022/12/06 04:48:33;;;;;;;;;;;;;;;;;;4435933;32;20025;-73
2022/12/06 04:50:58;;;;;;;9.95;4.07;;;;;;;;;;4435730;32;19937;-73
2022/12/06 04:53:23;;;;;;;12.27;4.47;;;;;;;;;;4421517;32;20496;-73
2022/12/06 04:55:48;;;;;;;;;;;;;;;;;;4422117;32;20026;-73
2022/12/06 04:58:14;;;;;;;8.30;3.96;;;;;;;;;;4422232;32;19940;-73
2022/12/06 05:00:42;;;;;;;;;;;;;;;;;;4435498;32;20055;-73
2022/12/06 05:03:11;;;;;;;9.40;4.43;;;;;;;;;;4435246;32;19956;-73
2022/12/06 05:05:36;;;;;;;8.52;4.72;;;;;;;;;;4435647;32;20026;-73
2022/12/06 05:08:01;;;;;;;;;;;;;;;;;;4436904;32;20064;-73
2022/12/06 05:10:26;;;;;;;6.40;4.37;;;;;;;;;;4435501;32;19951;-73
2022/12/06 05:12:51;;;;;;;10.00;4.20;;;;;;;;;;4436224;32;20064;-72
2022/12/06 05:15:16;;;;;;;;;;;;;;;;;;4421658;32;20055;-74
2022/12/06 05:17:41;;;;;;;10.90;4.57;;;;;;;;;;4421095;32;19932;-74
2022/12/06 05:20:06;;;;;;;;;;;;;;;;;;4419292;32;20046;-74
2022/12/06 05:22:32;;;;;;;11.73;5.03;;;;;;;;;;4420338;32;19947;-74
2022/12/06 05:24:57;;;;;;;;;;;;;;;;;;4418597;32;20496;-74
2022/12/06 05:27:22;;;;;;;8.13;4.12;;;;;;;;;;4419308;32;19933;-73
2022/12/06 05:29:47;;;;;;;;;;;;;;;;;;4418849;32;20420;-73
2022/12/06 05:32:12;;;;;;;9.63;4.00;;;;;;;;;;4419612;32;20345;-73
2022/12/06 05:34:38;;;;;;;;;;;;;;;;;;4420306;32;20171;-73
2022/12/06 05:37:03;;;;;;;10.30;4.65;;;;;;;;;;4419994;32;19972;-74
2022/12/06 05:39:28;;;;;;;;;;;;;;;;;;4419967;32;20168;-74
2022/12/06 05:41:53;;;;;;;9.95;5.00;;;;;;;;;;4420109;32;19961;-74
2022/12/06 05:44:18;;;;;;;;;;;;;;;;;;4420597;32;20029;-74
2022/12/06 05:46:43;;;;;;;9.75;5.18;;;;;;;;;;4421305;32;20018;-74
2022/12/06 05:49:08;;;;;;;13.07;4.68;;;;;;;;;;4421116;32;20031;-74
2022/12/06 05:51:34;;;;;;;;;;;;;;;;;;4419957;32;20022;-74
2022/12/06 05:54:02;;;;;;;11.12;5.50;;;;;;;;;;4418573;32;19937;-75
2022/12/06 05:56:27;;;;;;;8.65;5.28;;;;;;;;;;4418569;32;20222;-75
2022/12/06 05:58:52;;;;;;;;;;;;;;;;;;4419009;32;20447;-73
2022/12/06 06:01:18;;;;;;;10.07;4.90;;;;;;;;;;4419603;32;19964;-74
2022/12/06 06:03:43;;;;;;;;;;;;;;;;;;4419916;32;20030;-74
2022/12/06 06:06:09;;;;;;;12.82;5.64;;;;;;;;;;4419876;32;19992;-75
2022/12/06 06:08:34;;;;;;;;;;;;;;;;;;4420029;32;20383;-74
2022/12/06 06:10:59;;;;;;;14.57;5.15;;;;;;;;;;4419159;32;19956;-73
2022/12/06 06:13:24;;;;;;;;;;;;;;;;;;4420309;32;20145;-75
2022/12/06 06:15:50;;;;;;;13.52;5.47;;;;;;;;;;4418595;32;20321;-73
2022/12/06 06:18:15;;;;;;;;;;;;;;;;;;4420736;32;20244;-75
2022/12/06 06:20:40;;;;;;;6.93;3.83;;;;;;;;;;4429588;32;19945;-74
2022/12/06 06:23:05;;;;;;;;;;;;;;;;;;4431675;32;20130;-74
2022/12/06 06:25:30;;;;;;;12.32;5.30;;;;;;;;;;4418111;32;19937;-74
2022/12/06 06:27:56;;;;;;;;;;;;;;;;;;4407132;32;20144;-74
2022/12/06 06:30:21;;;;;;;8.82;4.47;;;;;;;;;;4421334;32;19959;-73
2022/12/06 06:32:46;;;;;;;;;;;;;;;;;;4407920;32;20205;-73
2022/12/06 06:35:11;;;;;;;9.10;5.07;;;;;;;;;;4421667;32;20290;-75
2022/12/06 06:37:36;;;;;;;;;;;;;;;;;;4434676;32;20025;-73
2022/12/06 06:40:02;;;;;;;9.07;5.18;;;;;;;;;;4433947;32;20331;-73
2022/12/06 06:42:27;;;;;;;12.68;5.07;;;;;;;;;;4433566;32;20022;-74
2022/12/06 06:44:54;;;;;;;;;;;;;;;;;;4434215;32;20078;-73
2022/12/06 06:47:19;;;;;;;12.00;5.43;;;;;;;;;;4434274;32;19941;-73
2022/12/06 06:49:45;;;;;;;;;;;;;;;;;;4420498;32;20052;-74
2022/12/06 06:52:10;;;;;;;9.70;5.70;;;;;;;;;;4435032;32;19941;-73
2022/12/06 06:54:35;;;;;;;;;;;;;;;;;;4435460;32;20121;-73
2022/12/06 06:57:01;;;;;;;12.48;6.14;;;;;;;;;;4434583;32;19984;-73
2022/12/06 06:59:27;;;;;;;12.75;5.82;;;;;;;;;;4420385;32;20044;-73
2022/12/06 07:01:52;;;;;;;;;;;;;;;;;;4434280;32;20057;-73
2022/12/06 07:04:17;;;;;;;13.20;6.12;;;;;;;;;;4433729;32;19937;-73
2022/12/06 07:06:42;;;;;;;;;;;;;;;;;;4434792;32;20175;-73
2022/12/06 07:09:08;;;;;;;15.88;8.77;;;;;;;;;;4433933;32;20000;-74
2022/12/06 07:11:33;;;;;;;;;;;;;;;;;;4436810;32;20311;-74
2022/12/06 07:13:59;;;;;;;12.95;6.37;;;;;;;;;;4434190;32;19936;-73
2022/12/06 07:16:24;;;;;;;8.40;4.95;;;;;;;;;;4433588;32;20045;-74
2022/12/06 07:18:50;;;;;;;;;;;;;;;;;;4420833;32;20135;-74
2022/12/06 07:21:15;;;;;;;13.25;6.37;;;;;;;;;;4435505;32;19980;-74
2022/12/06 07:23:40;;;;;;;;;;;;;;;;;;4434318;32;20056;-73
2022/12/06 07:26:08;;;;;;;11.93;7.03;;;;;;;;;;4419889;32;20223;-73
2022/12/06 07:28:34;;;;;;;14.60;6.65;;;;;;;;;;4433427;32;20457;-74
2022/12/06 07:31:10;;;;;;;17.12;8.00;;;;;;;;;;4433938;32;20029;-74
2022/12/06 07:33:35;;;;;;;16.20;8.60;;;;;;;;;;4433814;32;20060;-74
2022/12/06 07:36:00;;;;;;;;;;;;;;;;;;4419783;32;20034;-73
2022/12/06 07:38:25;;;;;;;17.15;6.32;;;;;;;;;;4420653;32;20203;-73
2022/12/06 07:40:50;;;;;;;;;;;;;;;;;;4433745;32;20188;-72
2022/12/06 07:46:01;;;;;;;12.82;7.70;;;;;;;;;;4412077;32;20129;-73
2022/12/06 07:48:26;;;;;;;;;;;;;;;;;;4422723;32;20090;-73
2022/12/06 07:50:51;;;;;;;15.32;7.75;;;;;;;;;;4426178;32;20319;-74
2022/12/06 07:53:16;;;;;;;;;;;;;;;;;;4423343;32;20155;-73
2022/12/06 07:55:42;;;;;;;12.30;7.47;;;;;;;;;;4420947;32;19943;-73
2022/12/06 07:58:07;;;;;;;16.52;7.20;;;;;;;;;;4425012;32;20030;-74
2022/12/06 08:00:32;;;;;;;;;;;;;;;;;;4413139;32;20088;-74
2022/12/06 08:02:57;;;;;;;12.68;7.70;;;;;;;;;;4433760;32;19956;-74
2022/12/06 08:05:22;;;;;;;;;;;;;;;;;;4412342;32;20030;-75
2022/12/06 08:07:48;;;;;;;18.17;8.65;;;;;;;;;;4423039;32;19938;-75
2022/12/06 08:10:13;;;;;;;;;;;;;;;;;;4418823;32;20204;-74
2022/12/06 08:12:38;;;;;;;17.25;8.45;;;;;;;;;;4431036;32;19937;-74
2022/12/06 08:15:03;;;;;;;;;;;;;;;;;;4420931;32;20507;-74
2022/12/06 08:17:29;;;;;;;16.60;8.35;;;;;;;;;;4420416;32;20011;-74
2022/12/06 08:19:54;;;;;;;;;;;;;;;;;;4435113;32;20410;-74
2022/12/06 08:22:19;;;;;;;17.65;8.55;;;;;;;;;;4435097;32;19973;-74
2022/12/06 08:24:44;;;;;;;;;;;;;;;;;;4434945;32;20125;-74
2022/12/06 08:27:10;;;;;;;24.60;10.88;;;;;;;;;;4434015;32;19932;-74
2022/12/06 08:29:35;;;;;;;;;;;;;;;;;;4435352;32;20510;-74
2022/12/06 08:32:00;;;;;;;21.54;9.78;;;;;;;;;;4420129;32;19975;-74
2022/12/06 08:34:25;;;;;;;;;;;;;;;;;;4435387;32;20068;-68
2022/12/06 08:36:50;;;;;;;24.08;9.80;;;;;;;;;;4435733;32;19933;-72
2022/12/06 08:39:15;;;;;;;;;;;;;;;;;;4435948;32;20375;-70
2022/12/06 08:42:01;;;;;;;21.17;10.80;;;;;;;;;;4438005;32;19966;-72
2022/12/06 08:44:27;;;;;;;17.92;10.38;;;;;;;;;;4436304;32;20104;-72
2022/12/06 08:46:53;;;;;;;;;;;;;;;;;;4435604;32;20089;-72
2022/12/06 08:49:18;;;;;;;20.12;10.05;;;;;;;;;;4439101;32;19975;-72
2022/12/06 08:51:43;;;;;;;;;;;;;;;;;;4436198;32;20097;-72
2022/12/06 08:54:11;;;;;;;20.77;9.82;;;;;;;;;;4435622;32;19929;-73
2022/12/06 08:56:36;;;;;;;26.40;9.98;;;;;;;;;;4435472;32;20451;-73
2022/12/06 08:59:01;;;;;;;;;;;;;;;;;;4422013;32;20060;-73
2022/12/06 09:01:28;;;;;;;16.92;8.40;;;;;;;;;;4437311;32;20280;-73
2022/12/06 09:03:53;;;;;;;18.25;8.10;;;;;;;;;;4436422;32;20065;-72
2022/12/06 09:06:18;;;;;;;;;;;;;;;;;;4437235;32;20056;-72
2022/12/06 09:08:44;;;;;;;14.52;7.20;;;;;;;;;;4436566;32;19972;-73
2022/12/06 09:11:09;;;;;;;;;;;;;;;;;;4437361;32;20155;-72
2022/12/06 09:13:35;;;;;;;9.65;6.07;;;;;;;;;;4435966;32;19959;-72
2022/12/06 09:16:09;;;;;;;14.20;6.57;;;;;;;;;;4436080;32;20125;-73
2022/12/06 09:18:34;;;;;;;13.20;7.72;;;;;;;;;;4421462;32;20132;-73
2022/12/06 09:20:59;;;;;;;;;;;;;;;;;;4421790;32;20449;-72
2022/12/06 09:23:24;;;;;;;11.68;6.53;;;;;;;;;;4435409;32;20299;-71
2022/12/06 09:25:49;;;;;;;;;;;;;;;;;;4436490;32;20118;-72
2022/12/06 09:28:15;;;;;;;14.35;5.57;;;;;;;;;;4435038;32;19940;-73
2022/12/06 09:30:40;;;;;;;;;;;;;;;;;;4435913;32;20057;-72
2022/12/06 09:33:05;;;;;;;9.95;4.68;;;;;;;;;;4435742;32;20180;-72
2022/12/06 09:35:30;;;;;;;;;;;;;;;;;;4435915;32;20155;-72
2022/12/06 09:37:56;;;;;;;15.10;4.45;;;;;;;;;;4435508;32;19944;-72
2022/12/06 09:40:45;;;;;;;8.57;4.07;;;;;;;;;;4435507;32;20029;-73
2022/12/06 09:43:19;;;;;;;12.25;4.12;;;;;;;;;;4386126;32;20033;-72
2022/12/06 09:46:03;;;;;;;12.15;3.87;;;;;;;;;;4421126;32;20025;-72
2022/12/06 09:48:37;;;;;;;9.20;3.80;;;;;;;;;;4435191;32;20098;-72
2022/12/06 09:51:11;;;;;;;7.85;4.12;;;;;;;;;;4437112;32;20037;-72
2022/12/06 09:53:45;;;;;;;11.27;4.00;;;;;;;;;;4437050;32;20042;-72
2022/12/06 09:56:17;;;;;;;7.35;3.70;;;;;;;;;;4435740;32;20420;-73
2022/12/06 09:58:45;;;;;;;7.18;4.10;;;;;;;;;;4421799;32;20449;-72
2022/12/06 10:01:25;;;;;;;13.18;4.18;;;;;;;;;;4436132;32;20025;-72
2022/12/06 10:04:09;;;;;;;11.40;4.00;;;;;;;;;;4426752;32;20022;-73
2022/12/06 10:06:56;;;;;;;8.40;3.65;;;;;;;;;;4436062;32;20319;-73
2022/12/06 10:09:21;;;;;;;;;;;;;;;;;;4437258;32;20229;-73
2022/12/06 10:12:07;;;;;;;10.25;4.03;;;;;;;;;;4434970;32;19937;-72
2022/12/06 10:14:47;;;;;;;7.90;4.62;;;;;;;;;;4436116;32;20030;-72
2022/12/06 10:17:27;;;;;;;8.38;5.05;;;;;;;;;;4436387;32;20059;-72
2022/12/06 10:20:01;;;;;;;10.55;5.25;;;;;;;;;;4435244;32;20041;-72
2022/12/06 10:22:46;;;;;;;11.15;5.35;;;;;;;;;;4435614;32;20029;-72
2022/12/06 10:25:15;;;;;;;9.50;6.97;;;;;;;;;;4394849;32;20475;-72
2022/12/06 10:27:59;;;;;;;26.40;10.95;;;;;;;;;;4435398;32;20413;-71
2022/12/06 10:30:24;;;;;;;21.48;8.35;;;;;;;;;;4435032;32;20311;-72
2022/12/06 10:32:49;;;;;;;;;;;;;;;;;;4435717;32;20022;-72
2022/12/06 10:35:21;;;;;;;10.45;5.05;;;;;;;;;;4434623;32;19952;-72
2022/12/06 10:37:50;;;;;;;11.70;6.32;;;;;;;;;;4435373;32;20060;-72
2022/12/06 10:40:21;;;;;;;17.00;6.03;;;;;;;;;;4434596;32;20432;-72
2022/12/06 10:42:52;;;;;;;15.35;7.43;;;;;;;;;;4437003;32;20052;-73
2022/12/06 10:48:21;;;;;;;12.10;5.55;;;;;;;;;;4435838;32;20058;-73
2022/12/06 10:50:49;;;;;;;9.52;4.82;;;;;;;;;;4435779;32;20029;-73
2022/12/06 10:53:15;;;;;;;12.57;5.10;;;;;;;;;;4436449;32;20453;-73
2022/12/06 10:55:40;;;;;;;;;;;;;;;;;;4434662;32;20022;-73
2022/12/06 10:58:14;;;;;;;6.80;3.85;;;;;;;;;;4420506;32;19947;-73
2022/12/06 11:00:59;;;;;;;7.35;4.28;;;;;;;;;;4434301;32;20184;-73
2022/12/06 11:03:32;;;;;;;6.60;3.67;;;;;;;;;;4411186;32;20034;-73
2022/12/06 11:06:21;;;;;;;7.62;3.30;;;;;;;;;;4434942;32;20086;-73
2022/12/06 11:09:19;;;;;;;10.68;3.75;;;;;;;;;;4419409;32;20025;-73
2022/12/06 11:11:45;;;;;;;5.50;3.25;;;;;;;;;;4407743;32;20067;-72
2022/12/06 11:14:10;;;;;;;;;;;;;;;;;;4434559;32;20034;-72
2022/12/06 11:16:38;;;;;;;6.55;3.12;;;;;;;;;;4435697;32;20297;-72
2022/12/06 11:19:17;;;;;;;3.70;2.42;;;;;;;;;;4433569;32;20239;-73
2022/12/06 11:21:52;;;;;;;8.77;2.75;;;;;;;;;;4434955;32;20034;-72
2022/12/06 11:24:44;;;;;;;12.20;3.72;;;;;;;;;;4423173;32;20386;-72
2022/12/06 11:27:09;;;;;;;7.97;3.60;;;;;;;;;;4434379;32;20034;-73
2022/12/06 11:29:36;;;;;;;;;;;;;;;;;;4435761;32;20400;-73
2022/12/06 11:32:02;;;;;;;8.70;2.62;;;;;;;;;;4433077;32;19959;-73
2022/12/06 11:34:27;;;;;;;;;;;;;;;;;;4432731;32;20063;-72
2022/12/06 11:36:53;;;;;;;10.63;3.10;;;;;;;;;;4419580;32;20338;-73
2022/12/06 11:39:19;;;;;;;7.80;2.78;;;;;;;;;;4432479;32;20030;-72
2022/12/06 11:41:44;;;;;;;;;;;;;;;;;;4433742;32;20049;-72
2022/12/06 11:44:14;;;;;;;8.63;2.45;;;;;;;;;;4419340;32;19941;-73
2022/12/06 11:46:39;;;;;;;9.98;2.45;;;;;;;;;;4433819;32;20033;-73
2022/12/06 11:49:04;;;;;;;;;;;;;;;;;;4434994;32;20022;-73
2022/12/06 11:51:29;;;;;;;8.00;2.55;;;;;;;;;;4435510;32;19945;-73
2022/12/06 11:53:57;;;;;;;10.20;2.83;;;;;;;;;;4435583;32;20025;-73
2022/12/06 11:56:25;;;;;;;3.83;1.90;;;;;;;;;;4433467;32;20034;-73
2022/12/06 11:59:20;;;;;;;6.85;2.35;;;;;;;;;;4435062;32;20067;-72
2022/12/06 12:01:47;;;;;;;6.47;2.05;;;;;;;;;;4433849;32;20029;-73
2022/12/06 12:04:26;;;;;;;5.55;1.95;;;;;;;;;;4432229;32;20328;-72
2022/12/06 12:06:56;;;;;;;6.00;2.55;;;;;;;;;;4419449;32;20038;-74
2022/12/06 12:09:23;;;;;;;5.40;2.62;;;;;;;;;;4432818;32;20098;-72
2022/12/06 12:11:58;;;;;;;6.55;2.55;;;;;;;;;;4420854;32;20041;-74
2022/12/06 12:14:26;;;;;;;5.10;2.53;;;;;;;;;;4435174;32;20213;-72
2022/12/06 12:16:55;;;;;;;7.55;2.45;;;;;;;;;;4436280;32;20033;-71
2022/12/06 12:19:39;;;;;;;5.28;2.70;;;;;;;;;;4436139;32;20045;-72
2022/12/06 12:22:34;;;;;;;10.73;2.50;;;;;;;;;;4436171;32;20038;-73
2022/12/06 12:25:00;;;;;;;12.37;2.67;;;;;;;;;;4426710;32;20038;-73
2022/12/06 12:27:25;;;;;;;;;;;;;;;;;;4436896;32;20281;-73
2022/12/06 12:30:22;;;;;;;9.20;2.55;;;;;;;;;;4438002;32;19956;-73
2022/12/06 12:32:48;;;;;;;5.03;2.40;;;;;;;;;;4409379;32;20037;-73
2022/12/06 12:35:17;;;;;;;13.10;2.50;;;;;;;;;;4435523;32;20464;-72
2022/12/06 12:37:42;;;;;;;6.15;2.30;;;;;;;;;;4436416;32;20354;-72
2022/12/06 12:40:07;;;;;;;;;;;;;;;;;;4422816;32;20057;-72
2022/12/06 12:42:33;;;;;;;8.13;1.90;;;;;;;;;;4437985;32;20295;-73
2022/12/06 12:45:01;;;;;;;7.30;2.50;;;;;;;;;;4441969;32;20101;-73
2022/12/06 12:47:27;;;;;;;8.10;2.58;;;;;;;;;;4439460;32;20059;-73
2022/12/06 12:49:52;;;;;;;;;;;;;;;;;;4436225;32;20323;-73
2022/12/06 12:52:34;;;;;;;8.90;2.72;;;;;;;;;;4421730;32;19960;-72
2022/12/06 12:55:00;;;;;;;5.53;2.80;;;;;;;;;;4436771;32;20147;-73
2022/12/06 12:57:26;;;;;;;7.32;2.95;;;;;;;;;;4435235;32;20033;-72
2022/12/06 12:59:51;;;;;;;;;;;;;;;;;;4435111;32;20038;-73
2022/12/06 13:02:21;;;;;;;7.35;2.95;;;;;;;;;;4421238;32;20000;-73
2022/12/06 13:04:48;;;;;;;7.37;2.45;;;;;;;;;;4422475;32;20136;-73
2022/12/06 13:07:25;;;;;;;4.60;2.50;;;;;;;;;;4422584;32;20065;-72
2022/12/06 13:10:10;;;;;;;5.03;2.70;;;;;;;;;;4435403;32;20037;-73
2022/12/06 13:12:35;;;;;;;5.55;2.70;;;;;;;;;;4435744;32;20359;-72
2022/12/06 13:15:00;;;;;;;;;;;;;;;;;;4437186;32;20025;-73
2022/12/06 13:17:27;;;;;;;5.85;2.53;;;;;;;;;;4436408;32;19937;-73
2022/12/06 13:19:53;;;;;;;5.50;2.10;;;;;;;;;;4435301;32;20046;-73
2022/12/06 13:22:19;;;;;;;;;;;;;;;;;;4435191;32;20074;-72
2022/12/06 13:24:45;;;;;;;5.15;2.17;;;;;;;;;;4420820;32;19971;-73
2022/12/06 13:27:16;;;;;;;5.97;2.25;;;;;;;;;;4436492;32;20475;-72
2022/12/06 13:29:57;;;;;;;5.30;1.92;;;;;;;;;;4435729;32;20037;-73
2022/12/06 13:32:25;;;;;;;4.45;1.87;;;;;;;;;;4435875;32;20047;-72
2022/12/06 13:34:59;;;;;;;5.90;1.90;;;;;;;;;;4435071;32;20065;-72
2022/12/06 13:37:42;;;;;;;6.40;2.00;;;;;;;;;;4435312;32;20041;-74
2022/12/06 13:40:27;;;;;;;4.65;1.95;;;;;;;;;;4434754;32;20420;-73
2022/12/06 13:42:53;;;;;;;6.25;2.00;;;;;;;;;;4432749;32;20077;-73
2022/12/06 13:45:18;;;;;;;;;;;;;;;;;;4429196;32;20135;-72
2022/12/06 13:47:49;;;;;;;8.10;2.17;;;;;;;;;;4434440;32;20084;-73
2022/12/06 13:50:14;;;;;;;2.78;1.70;;;;;;;;;;4434872;32;20343;-73
2022/12/06 13:52:40;;;;;;;;;;;;;;;;;;4421402;32;20044;-73
2022/12/06 13:55:31;;;;;;;6.57;1.50;;;;;;;;;;4436467;32;19932;-74
2022/12/06 13:57:56;;;;;;;8.57;2.37;;;;;;;;;;4398863;32;20041;-73
2022/12/06 14:00:21;;;;;;;;;;;;;;;;;;4435732;32;20060;-73
2022/12/06 14:02:47;;;;;;;7.03;2.30;;;;;;;;;;4436768;32;20020;-73
2022/12/06 14:05:12;;;;;;;;;;;;;;;;;;4427723;32;20137;-73
2022/12/06 14:07:37;;;;;;;13.32;2.45;;;;;;;;;;4435712;32;19941;-72
2022/12/06 14:10:02;;;;;;;;;;;;;;;;;;4409832;32;20102;-72
2022/12/06 14:12:28;;;;;;;4.30;1.87;;;;;;;;;;4408747;32;19951;-73
2022/12/06 14:14:53;;;;;;;;;;;;;;;;;;4429431;32;20368;-72
2022/12/06 14:17:19;;;;;;;6.12;1.87;;;;;;;;;;4434480;32;19936;-73
2022/12/06 14:19:44;;;;;;;;;;;;;;;;;;4434123;32;20041;-73
2022/12/06 14:22:16;;;;;;;8.05;2.70;;;;;;;;;;4428890;32;19986;-72
2022/12/06 14:24:52;;;;;;;4.12;2.20;;;;;;;;;;4428543;32;20093;-73
2022/12/06 14:27:19;;;;;;;5.82;2.40;;;;;;;;;;4431931;32;20331;-73
2022/12/06 14:30:03;;;;;;;4.50;2.70;;;;;;;;;;4419692;32;20091;-72
2022/12/06 14:32:36;;;;;;;8.43;3.58;;;;;;;;;;4433798;32;20067;-73
2022/12/06 14:35:03;;;;;;;8.65;3.17;;;;;;;;;;4419588;32;20348;-73
2022/12/06 14:37:28;;;;;;;7.45;3.42;;;;;;;;;;4418913;32;20034;-73
2022/12/06 14:39:53;;;;;;;;;;;;;;;;;;4420298;32;20033;-72
2022/12/06 14:45:05;;;;;;;5.25;2.95;;;;;;;;;;4419720;32;20103;-73
2022/12/06 14:47:31;;;;;;;5.62;2.97;;;;;;;;;;4419322;32;20068;-73
2022/12/06 14:52:57;;;;;;;8.48;2.70;;;;;;;;;;4436302;32;19958;-72
2022/12/06 14:55:22;;;;;;;7.68;3.10;;;;;;;;;;4420457;32;20033;-73
2022/12/06 14:57:47;;;;;;;;;;;;;;;;;;4433772;32;20450;-73
2022/12/06 15:00:17;;;;;;;8.35;3.03;;;;;;;;;;4420207;32;20381;-73
2022/12/06 15:03:02;;;;;;;5.80;2.40;;;;;;;;;;4434955;32;20092;-73
2022/12/06 15:05:31;;;;;;;4.90;2.28;;;;;;;;;;4420937;32;20060;-73
2022/12/06 15:07:57;;;;;;;6.35;2.85;;;;;;;;;;4420656;32;20034;-73
2022/12/06 15:10:24;;;;;;;;;;;;;;;;;;4418766;32;20070;-73
2022/12/06 15:12:56;;;;;;;5.37;2.60;;;;;;;;;;4406449;32;19929;-72
2022/12/06 15:15:30;;;;;;;13.18;3.17;;;;;;;;;;4420205;32;20094;-72
2022/12/06 15:18:01;;;;;;;6.57;2.85;;;;;;;;;;4405457;32;20463;-72
2022/12/06 15:20:26;;;;;;;6.97;3.40;;;;;;;;;;4419097;32;20041;-73
2022/12/06 15:22:51;;;;;;;;;;;;;;;;;;4419221;32;20021;-73
2022/12/06 15:25:17;;;;;;;7.15;2.78;;;;;;;;;;4421818;32;19938;-72
2022/12/06 15:27:42;;;;;;;;;;;;;;;;;;4420955;32;20117;-73
2022/12/06 15:30:08;;;;;;;4.12;1.90;;;;;;;;;;4419311;32;19945;-73
2022/12/06 15:32:33;;;;;;;6.78;2.10;;;;;;;;;;4420860;32;20188;-73
2022/12/06 15:34:58;;;;;;;;;;;;;;;;;;4426236;32;20026;-73
2022/12/06 15:37:23;;;;;;;4.55;2.12;;;;;;;;;;4435153;32;19971;-74
2022/12/06 15:39:48;;;;;;;;;;;;;;;;;;4434242;32;20082;-77
2022/12/06 15:42:18;;;;;;;4.52;2.68;;;;;;;;;;4435847;32;19968;-78
2022/12/06 15:44:43;;;;;;;5.82;2.17;;;;;;;;;;4430338;32;20103;-78
2022/12/06 15:47:09;;;;;;;;;;;;;;;;;;4423621;32;20388;-79
2022/12/06 15:49:34;;;;;;;6.50;2.17;;;;;;;;;;4429849;32;19937;-79